createdAt,value
2022-07-26T00:01:31.626Z,13.50
2022-07-26T00:04:02.373Z,13.27
2022-07-26T00:06:31.571Z,13.45
2022-07-26T00:09:00.844Z,12.60
2022-07-26T00:11:31.793Z,12.60
2022-07-26T00:14:03.288Z,12.60
2022-07-26T00:16:32.686Z,12.40
2022-07-26T00:19:01.981Z,11.82
2022-07-26T00:21:32.282Z,10.98
2022-07-26T00:24:01.409Z,11.23
2022-07-26T00:26:30.594Z,11.05
2022-07-26T00:28:59.800Z,12.05
2022-07-26T00:31:28.981Z,10.57
2022-07-26T00:33:58.258Z,11.25
2022-07-26T00:36:28.951Z,11.52
2022-07-26T00:38:58.102Z,11.35
2022-07-26T00:41:27.206Z,9.95
2022-07-26T00:44:01.421Z,9.02
2022-07-26T00:46:30.651Z,7.22
2022-07-26T00:48:59.973Z,6.97
2022-07-26T00:51:30.443Z,6.47
2022-07-26T00:53:59.693Z,6.85
2022-07-26T00:56:29.259Z,6.97
2022-07-26T00:58:58.524Z,7.28
2022-07-26T01:01:27.966Z,6.63
2022-07-26T01:03:57.475Z,7.50
2022-07-26T01:06:27.508Z,7.22
2022-07-26T01:08:58.313Z,6.50
2022-07-26T01:11:27.587Z,5.70
2022-07-26T01:13:56.831Z,5.93
2022-07-26T01:16:27.016Z,5.25
2022-07-26T01:18:56.302Z,5.50
2022-07-26T01:21:30.765Z,6.05
2022-07-26T01:24:00.381Z,5.50
2022-07-26T01:26:29.699Z,5.22
2022-07-26T01:28:58.921Z,4.97
2022-07-26T01:31:28.281Z,5.75
2022-07-26T01:33:57.552Z,6.05
2022-07-26T01:36:26.705Z,5.70
2022-07-26T01:38:56.321Z,5.70
2022-07-26T01:41:37.906Z,4.53
2022-07-26T01:44:09.450Z,4.80
2022-07-26T01:46:38.909Z,4.25
2022-07-26T01:49:10.068Z,4.93
2022-07-26T01:51:39.408Z,4.90
2022-07-26T01:54:08.944Z,4.03
2022-07-26T01:56:38.416Z,4.43
2022-07-26T01:59:07.911Z,4.22
2022-07-26T02:01:38.863Z,4.00
2022-07-26T02:04:30.319Z,3.95
2022-07-26T02:07:00.370Z,4.20
2022-07-26T02:09:39.577Z,4.18
2022-07-26T02:12:09.711Z,3.83
2022-07-26T02:14:39.356Z,4.18
2022-07-26T02:17:08.918Z,3.92
2022-07-26T02:19:38.217Z,4.07
2022-07-26T02:22:08.131Z,3.45
2022-07-26T02:24:37.370Z,3.83
2022-07-26T02:27:12.193Z,4.00
2022-07-26T02:29:41.608Z,4.78
2022-07-26T02:32:12.517Z,4.53
2022-07-26T02:34:41.791Z,3.53
2022-07-26T02:37:10.975Z,3.60
2022-07-26T02:39:40.195Z,4.03
2022-07-26T02:42:09.830Z,4.57
2022-07-26T02:44:39.110Z,3.60
2022-07-26T02:47:08.319Z,3.65
2022-07-26T02:49:37.587Z,3.40
2022-07-26T02:52:07.182Z,3.80
2022-07-26T02:54:36.440Z,4.07
2022-07-26T02:57:05.816Z,3.88
2022-07-26T02:59:34.990Z,3.70
2022-07-26T03:02:04.404Z,4.07
2022-07-26T03:04:33.656Z,4.43
2022-07-26T03:07:02.820Z,3.33
2022-07-26T03:09:33.355Z,3.60
2022-07-26T03:12:02.605Z,3.58
2022-07-26T03:14:31.759Z,3.90
2022-07-26T03:17:00.932Z,3.10
2022-07-26T03:19:30.183Z,4.35
2022-07-26T03:21:59.662Z,3.53
2022-07-26T03:24:29.700Z,3.42
2022-07-26T03:26:59.284Z,3.53
2022-07-26T03:29:28.594Z,3.15
2022-07-26T03:31:57.808Z,2.88
2022-07-26T03:34:27.490Z,2.90
2022-07-26T03:36:56.586Z,3.50
2022-07-26T03:39:28.048Z,3.30
2022-07-26T03:41:57.296Z,3.30
2022-07-26T03:44:26.548Z,3.40
2022-07-26T03:46:55.722Z,3.05
2022-07-26T03:49:25.294Z,3.28
2022-07-26T03:51:55.077Z,3.60
2022-07-26T03:54:24.376Z,2.80
2022-07-26T03:56:54.239Z,3.28
2022-07-26T03:59:25.454Z,3.38
2022-07-26T04:01:55.306Z,3.10
2022-07-26T04:04:25.350Z,3.58
2022-07-26T04:06:57.841Z,3.30
2022-07-26T04:09:32.550Z,3.42
2022-07-26T04:12:01.736Z,3.42
2022-07-26T04:26:05.769Z,3.50
2022-07-26T04:28:35.136Z,3.40
2022-07-26T04:31:04.410Z,4.15
2022-07-26T04:33:34.901Z,3.42
2022-07-26T04:36:05.134Z,3.58
2022-07-26T04:38:34.325Z,4.03
2022-07-26T04:41:03.708Z,3.30
2022-07-26T04:43:33.303Z,3.08
2022-07-26T04:46:02.819Z,3.90
2022-07-26T04:48:32.168Z,3.15
2022-07-26T04:51:03.053Z,3.92
2022-07-26T04:53:32.362Z,3.67
2022-07-26T04:56:01.664Z,3.55
2022-07-26T04:58:30.892Z,3.35
2022-07-26T05:01:09.913Z,3.10
2022-07-26T05:03:42.112Z,3.78
2022-07-26T05:06:11.778Z,3.13
2022-07-26T05:08:41.007Z,3.60
2022-07-26T05:11:10.741Z,3.55
2022-07-26T05:13:40.206Z,3.70
2022-07-26T05:16:11.954Z,3.22
2022-07-26T05:18:45.909Z,3.80
2022-07-26T05:21:20.025Z,3.72
2022-07-26T05:23:49.491Z,3.10
2022-07-26T05:26:18.631Z,3.13
2022-07-26T05:28:47.867Z,3.13
2022-07-26T05:31:18.288Z,2.80
2022-07-26T05:33:47.539Z,3.28
2022-07-26T05:36:16.745Z,2.95
2022-07-26T05:38:46.033Z,3.35
2022-07-26T05:41:15.213Z,2.97
2022-07-26T05:43:44.421Z,3.30
2022-07-26T05:46:13.935Z,3.20
2022-07-26T05:48:43.495Z,3.15
2022-07-26T05:51:13.821Z,3.53
2022-07-26T05:53:42.931Z,8.13
2022-07-26T06:03:36.077Z,5.88
2022-07-26T06:06:05.359Z,14.75
2022-07-26T06:08:34.789Z,13.30
2022-07-26T06:11:04.043Z,5.68
2022-07-26T06:13:33.448Z,5.22
2022-07-26T06:16:03.442Z,3.50
2022-07-26T06:18:32.630Z,3.90
2022-07-26T06:21:02.196Z,3.78
2022-07-26T06:23:34.602Z,3.55
2022-07-26T06:26:05.395Z,3.15
2022-07-26T06:28:35.401Z,3.45
2022-07-26T06:31:04.685Z,3.28
2022-07-26T06:33:33.987Z,3.53
2022-07-26T06:36:03.260Z,3.60
2022-07-26T06:38:32.620Z,3.15
2022-07-26T06:41:01.981Z,3.17
2022-07-26T06:43:31.192Z,3.33
2022-07-26T06:46:00.611Z,3.35
2022-07-26T06:48:29.866Z,3.42
2022-07-26T06:50:59.041Z,3.40
2022-07-26T06:53:28.275Z,3.30
2022-07-26T06:55:57.444Z,2.85
2022-07-26T06:58:26.588Z,3.47
2022-07-26T07:00:56.160Z,3.78
2022-07-26T07:03:25.616Z,3.15
2022-07-26T07:05:54.765Z,3.58
2022-07-26T07:08:26.139Z,3.67
2022-07-26T07:10:57.179Z,3.50
2022-07-26T07:13:27.683Z,4.07
2022-07-26T07:15:56.933Z,3.45
2022-07-26T07:18:26.926Z,4.25
2022-07-26T07:20:56.139Z,3.58
2022-07-26T07:23:25.390Z,3.70
2022-07-26T07:25:54.613Z,3.50
2022-07-26T07:28:25.422Z,3.78
2022-07-26T07:30:54.609Z,3.63
2022-07-26T07:33:23.798Z,3.63
2022-07-26T07:35:55.331Z,3.35
2022-07-26T07:38:24.467Z,3.83
2022-07-26T07:40:54.092Z,4.10
2022-07-26T07:43:23.717Z,3.63
2022-07-26T07:45:52.878Z,3.78
2022-07-26T07:48:23.192Z,10.13
2022-07-26T07:50:52.405Z,4.47
2022-07-26T07:53:21.708Z,4.95
2022-07-26T07:55:51.748Z,4.00
2022-07-26T07:58:24.953Z,4.45
2022-07-26T08:00:57.561Z,3.65
2022-07-26T08:03:38.595Z,3.13
2022-07-26T08:06:11.051Z,3.75
2022-07-26T08:08:40.747Z,3.53
2022-07-26T08:11:12.519Z,3.50
2022-07-26T08:13:45.802Z,3.58
2022-07-26T08:16:17.401Z,3.58
2022-07-26T08:18:56.970Z,3.67
2022-07-26T08:21:29.164Z,3.72
2022-07-26T08:23:59.137Z,3.63
2022-07-26T08:26:28.391Z,4.50
2022-07-26T08:29:08.968Z,4.07
2022-07-26T08:31:38.407Z,3.22
2022-07-26T08:34:08.032Z,2.40
2022-07-26T08:36:41.968Z,3.08
2022-07-26T08:43:10.483Z,2.90
2022-07-26T08:45:40.182Z,3.33
2022-07-26T08:48:18.112Z,3.55
2022-07-26T08:50:48.890Z,3.00
2022-07-26T08:53:18.381Z,3.05
2022-07-26T08:58:38.157Z,2.55
2022-07-26T09:01:10.740Z,2.38
2022-07-26T09:06:28.151Z,2.35
2022-07-26T09:09:14.051Z,2.40
2022-07-26T09:11:43.262Z,3.05
2022-07-26T09:14:12.504Z,2.38
2022-07-26T09:16:41.868Z,2.70
2022-07-26T09:19:22.853Z,2.35
2022-07-26T09:21:53.547Z,2.70
2022-07-26T09:24:34.268Z,2.08
2022-07-26T09:27:06.962Z,2.15
2022-07-26T09:32:26.095Z,1.75
2022-07-26T09:34:59.002Z,2.17
2022-07-26T09:37:45.563Z,2.20
2022-07-26T09:40:17.243Z,2.35
2022-07-26T09:43:07.245Z,2.53
2022-07-26T09:45:39.329Z,2.17
2022-07-26T09:48:13.754Z,1.70
2022-07-26T09:50:50.181Z,2.10
2022-07-26T09:53:19.610Z,2.00
2022-07-26T09:55:50.654Z,1.90
2022-07-26T09:58:20.477Z,1.58
2022-07-26T10:00:50.180Z,1.80
2022-07-26T10:03:19.521Z,2.10
2022-07-26T10:05:48.893Z,2.17
2022-07-26T10:08:19.627Z,2.10
2022-07-26T10:11:03.668Z,2.03
2022-07-26T10:13:33.077Z,2.00
2022-07-26T10:16:03.268Z,2.55
2022-07-26T10:18:40.901Z,1.65
2022-07-26T10:21:27.025Z,2.17
2022-07-26T10:24:00.488Z,2.22
2022-07-26T10:26:39.219Z,1.80
2022-07-26T10:29:18.472Z,1.95
2022-07-26T10:31:50.695Z,2.03
2022-07-26T10:34:38.524Z,2.15
2022-07-26T10:37:10.404Z,1.92
2022-07-26T10:39:40.973Z,2.63
2022-07-26T10:42:12.426Z,2.65
2022-07-26T10:44:46.630Z,2.65
2022-07-26T10:47:19.857Z,2.15
2022-07-26T10:49:58.939Z,2.45
2022-07-26T10:52:30.536Z,3.33
2022-07-26T10:55:01.669Z,3.00
2022-07-26T10:57:35.151Z,3.10
2022-07-26T11:00:11.271Z,4.40
2022-07-26T11:02:41.063Z,3.40
2022-07-26T11:05:15.533Z,3.25
2022-07-26T11:07:54.379Z,3.10
2022-07-26T11:10:27.917Z,2.60
2022-07-26T11:13:17.355Z,2.95
2022-07-26T11:15:49.677Z,2.65
2022-07-26T11:18:22.617Z,3.20
2022-07-26T11:20:56.576Z,2.78
2022-07-26T11:23:28.596Z,2.85
2022-07-26T11:26:09.161Z,3.45
2022-07-26T11:28:46.822Z,3.45
2022-07-26T11:31:18.142Z,4.40
2022-07-26T11:36:35.105Z,7.03
2022-07-26T11:41:35.194Z,3.80
2022-07-26T11:44:05.625Z,4.63
2022-07-26T11:46:39.383Z,4.72
2022-07-26T11:49:20.915Z,5.18
2022-07-26T11:51:53.469Z,5.28
2022-07-26T11:54:24.643Z,3.80
2022-07-26T11:56:56.789Z,4.20
2022-07-26T11:59:35.854Z,4.13
2022-07-26T12:02:07.487Z,5.93
2022-07-26T12:04:42.002Z,11.02
2022-07-26T12:07:15.070Z,6.47
2022-07-26T12:09:52.003Z,4.03
2022-07-26T12:12:24.698Z,5.40
2022-07-26T12:17:34.894Z,4.88
2022-07-26T12:20:20.464Z,14.68
2022-07-26T12:23:01.674Z,9.93
2022-07-26T12:25:31.477Z,5.60
2022-07-26T12:28:00.709Z,5.55
2022-07-26T12:30:36.378Z,5.30
2022-07-26T12:33:05.722Z,5.72
2022-07-26T12:35:36.974Z,5.75
2022-07-26T12:38:06.214Z,5.72
2022-07-26T12:40:43.718Z,5.30
2022-07-26T12:43:13.641Z,4.88
2022-07-26T12:45:42.842Z,4.55
2022-07-26T12:48:13.245Z,4.90
2022-07-26T12:50:42.462Z,5.18
2022-07-26T12:53:12.854Z,5.30
2022-07-26T12:55:42.287Z,5.68
2022-07-26T12:58:11.546Z,5.18
2022-07-26T13:00:40.900Z,5.75
2022-07-26T13:03:10.125Z,4.03
2022-07-26T13:05:39.373Z,5.40
2022-07-26T13:08:08.550Z,4.93
2022-07-26T13:10:37.876Z,4.95
2022-07-26T13:13:07.306Z,4.85
2022-07-26T13:15:37.973Z,4.97
2022-07-26T13:18:09.718Z,4.75
2022-07-26T13:20:39.902Z,5.00
2022-07-26T13:23:15.864Z,5.55
2022-07-26T13:25:51.566Z,7.25
2022-07-26T13:28:20.882Z,6.20
2022-07-26T13:30:50.083Z,7.00
2022-07-26T13:33:19.379Z,7.05
2022-07-26T13:35:50.143Z,8.55
2022-07-26T13:38:20.998Z,9.40
2022-07-26T13:40:51.774Z,9.27
2022-07-26T13:43:20.989Z,8.90
2022-07-26T13:45:50.190Z,7.13
2022-07-26T13:48:19.345Z,6.70
2022-07-26T13:50:48.625Z,6.53
2022-07-26T13:53:18.361Z,6.70
2022-07-26T13:55:47.580Z,7.63
2022-07-26T13:58:16.970Z,7.05
2022-07-26T14:00:46.097Z,7.93
2022-07-26T14:03:15.365Z,8.63
2022-07-26T14:05:44.617Z,7.00
2022-07-26T14:08:14.337Z,7.47
2022-07-26T14:10:43.804Z,8.18
2022-07-26T14:13:13.034Z,10.43
2022-07-26T14:15:42.225Z,12.85
2022-07-26T14:18:11.374Z,12.82
2022-07-26T14:20:40.661Z,11.23
2022-07-26T14:23:09.810Z,11.98
2022-07-26T14:25:38.934Z,11.50
2022-07-26T14:28:08.232Z,10.50
2022-07-26T14:30:38.074Z,8.30
2022-07-26T14:33:07.924Z,8.70
2022-07-26T14:35:37.164Z,7.47
2022-07-26T14:38:06.480Z,8.20
2022-07-26T14:40:37.241Z,7.95
2022-07-26T14:43:06.503Z,8.07
2022-07-26T14:45:35.663Z,7.78
2022-07-26T14:48:04.922Z,8.20
2022-07-26T14:50:53.114Z,8.00
2022-07-26T14:53:23.738Z,7.47
2022-07-26T14:55:53.750Z,7.25
2022-07-26T14:58:22.992Z,7.07
2022-07-26T15:00:54.246Z,6.65
2022-07-26T15:03:23.575Z,7.68
2022-07-26T15:05:52.858Z,6.88
2022-07-26T15:08:22.055Z,7.75
2022-07-26T15:10:51.903Z,6.70
2022-07-26T15:13:21.158Z,6.47
2022-07-26T15:15:50.364Z,7.05
2022-07-26T15:18:19.686Z,6.35
2022-07-26T15:20:48.945Z,5.88
2022-07-26T15:23:18.243Z,6.93
2022-07-26T15:25:49.942Z,6.15
2022-07-26T15:28:19.479Z,6.20
2022-07-26T15:30:48.708Z,5.90
2022-07-26T15:33:18.493Z,6.68
2022-07-26T15:35:47.873Z,6.32
2022-07-26T15:38:17.050Z,6.25
2022-07-26T15:40:46.326Z,5.93
2022-07-26T15:43:23.903Z,5.72
2022-07-26T15:46:12.856Z,5.90
2022-07-26T15:48:43.452Z,5.75
2022-07-26T15:51:12.611Z,5.82
2022-07-26T15:53:46.447Z,6.28
2022-07-26T15:56:16.090Z,5.65
2022-07-26T15:58:45.402Z,6.07
2022-07-26T16:01:15.820Z,5.75
2022-07-26T16:03:45.071Z,5.75
2022-07-26T16:06:14.324Z,6.55
2022-07-26T16:09:05.812Z,6.90
2022-07-26T16:11:33.175Z,6.65
2022-07-26T16:14:02.377Z,6.43
2022-07-26T16:16:32.364Z,5.82
2022-07-26T16:19:01.641Z,6.60
2022-07-26T16:21:30.802Z,6.93
2022-07-26T16:24:04.467Z,6.65
2022-07-26T16:26:36.265Z,6.53
2022-07-26T16:29:07.383Z,5.97
2022-07-26T16:31:37.672Z,6.03
2022-07-26T16:34:10.117Z,6.05
2022-07-26T16:36:39.715Z,5.75
2022-07-26T16:39:09.406Z,5.88
2022-07-26T16:41:38.843Z,5.72
2022-07-26T16:44:08.143Z,5.80
2022-07-26T16:46:37.390Z,5.38
2022-07-26T16:49:06.785Z,5.80
2022-07-26T16:51:36.087Z,5.90
2022-07-26T16:54:05.321Z,5.75
2022-07-26T16:56:34.624Z,6.13
2022-07-26T17:02:34.035Z,5.18
2022-07-26T17:05:03.601Z,5.97
2022-07-26T17:07:33.413Z,5.70
2022-07-26T17:10:02.565Z,6.03
2022-07-26T17:12:31.716Z,6.13
2022-07-26T17:15:01.229Z,6.03
2022-07-26T17:17:30.436Z,6.03
2022-07-26T17:19:59.528Z,5.80
2022-07-26T17:22:28.704Z,7.03
2022-07-26T17:24:57.790Z,5.57
2022-07-26T17:27:27.500Z,5.40
2022-07-26T17:29:56.702Z,5.45
2022-07-26T17:32:25.926Z,5.63
2022-07-26T17:34:55.284Z,5.82
2022-07-26T17:37:24.482Z,5.75
2022-07-26T17:39:54.237Z,5.40
2022-07-26T17:42:24.192Z,5.85
2022-07-26T17:44:53.649Z,5.82
2022-07-26T17:47:29.534Z,6.00
2022-07-26T17:52:53.328Z,5.72
2022-07-26T17:55:23.494Z,5.25
2022-07-26T17:57:53.551Z,5.85
2022-07-26T18:00:28.899Z,5.45
2022-07-26T18:02:59.250Z,5.30
2022-07-26T18:05:34.199Z,5.47
2022-07-26T18:08:05.455Z,6.35
2022-07-26T18:10:34.657Z,6.07
2022-07-26T18:13:03.742Z,6.00
2022-07-26T18:15:32.910Z,5.80
2022-07-26T18:18:02.167Z,5.65
2022-07-26T18:20:31.461Z,5.43
2022-07-26T18:23:00.908Z,5.78
2022-07-26T18:25:30.150Z,6.05
2022-07-26T18:28:03.280Z,5.88
2022-07-26T18:30:35.962Z,5.53
2022-07-26T18:33:05.979Z,5.72
2022-07-26T18:35:35.209Z,6.20
2022-07-26T18:38:04.466Z,6.43
2022-07-26T18:40:33.780Z,6.13
2022-07-26T18:43:03.085Z,6.63
2022-07-26T18:45:34.490Z,6.03
2022-07-26T18:48:03.655Z,6.63
2022-07-26T18:50:32.783Z,6.22
2022-07-26T18:53:02.118Z,5.50
2022-07-26T18:55:31.272Z,5.88
2022-07-26T18:58:06.235Z,6.05
2022-07-26T19:00:36.046Z,6.00
2022-07-26T19:03:05.463Z,6.20
2022-07-26T19:05:35.526Z,5.40
2022-07-26T19:08:05.804Z,6.05
2022-07-26T19:10:35.078Z,5.50
2022-07-26T19:13:04.363Z,5.30
2022-07-26T19:15:33.753Z,4.57
2022-07-26T19:18:12.288Z,5.63
2022-07-26T19:20:41.761Z,5.07
2022-07-26T19:23:12.626Z,5.05
2022-07-26T19:25:42.851Z,5.30
2022-07-26T19:28:12.175Z,5.45
2022-07-26T19:30:41.320Z,5.78
2022-07-26T19:33:10.523Z,6.00
2022-07-26T19:35:39.670Z,5.95
2022-07-26T19:38:08.817Z,6.90
2022-07-26T19:40:38.015Z,6.13
2022-07-26T19:43:07.370Z,8.63
2022-07-26T19:45:36.670Z,7.53
2022-07-26T19:48:06.388Z,7.20
2022-07-26T19:50:35.630Z,6.15
2022-07-26T19:53:04.838Z,5.55
2022-07-26T19:55:33.991Z,5.45
2022-07-26T19:58:03.134Z,5.40
2022-07-26T20:00:32.373Z,5.82
2022-07-26T20:03:02.119Z,6.07
2022-07-26T20:05:31.316Z,5.32
2022-07-26T20:08:02.550Z,6.18
2022-07-26T20:10:32.415Z,4.88
2022-07-26T20:13:01.842Z,5.05
2022-07-26T20:15:31.088Z,4.78
2022-07-26T20:18:00.486Z,5.28
2022-07-26T20:20:29.621Z,5.85
2022-07-26T20:22:58.963Z,5.30
2022-07-26T20:25:28.160Z,5.18
2022-07-26T20:27:57.449Z,5.28
2022-07-26T20:30:26.841Z,4.95
2022-07-26T20:32:56.287Z,4.93
2022-07-26T20:35:25.400Z,5.13
2022-07-26T20:37:54.630Z,5.57
2022-07-26T20:40:23.891Z,4.93
2022-07-26T20:42:53.950Z,5.30
2022-07-26T20:45:26.536Z,4.80
2022-07-26T20:47:56.775Z,5.22
2022-07-26T20:50:26.004Z,4.95
2022-07-26T20:52:55.207Z,5.28
2022-07-26T20:55:25.370Z,4.63
2022-07-26T20:57:54.553Z,4.90
2022-07-26T21:00:23.776Z,5.00
2022-07-26T21:02:54.873Z,5.10
2022-07-26T21:05:24.149Z,5.57
2022-07-26T21:07:59.250Z,5.18
2022-07-26T21:10:30.649Z,4.68
2022-07-26T21:13:01.669Z,5.28
2022-07-26T21:15:31.967Z,5.32
2022-07-26T21:18:02.416Z,5.63
2022-07-26T21:20:33.407Z,5.60
2022-07-26T21:23:15.855Z,6.90
2022-07-26T21:25:46.328Z,7.63
2022-07-26T21:28:15.508Z,6.95
2022-07-26T21:30:44.679Z,7.47
2022-07-26T21:33:14.739Z,6.38
2022-07-26T21:35:44.132Z,6.75
2022-07-26T21:38:13.345Z,6.75
2022-07-26T21:40:42.619Z,6.80
2022-07-26T21:43:11.790Z,7.03
2022-07-26T21:45:41.531Z,6.55
2022-07-26T21:48:10.785Z,7.57
2022-07-26T21:50:39.923Z,7.40
2022-07-26T21:53:09.158Z,7.63
2022-07-26T21:55:38.311Z,6.72
2022-07-26T21:58:07.546Z,8.40
2022-07-26T22:00:40.683Z,8.98
2022-07-26T22:03:10.233Z,9.40
2022-07-26T22:05:39.410Z,7.75
2022-07-26T22:08:11.230Z,7.85
2022-07-26T22:10:45.946Z,8.15
2022-07-26T22:13:16.181Z,7.80
2022-07-26T22:15:46.394Z,7.07
2022-07-26T22:18:15.939Z,6.78
2022-07-26T22:20:45.587Z,7.35
2022-07-26T22:23:15.222Z,11.57
2022-07-26T22:25:44.754Z,10.90
2022-07-26T22:28:18.515Z,14.35
2022-07-26T22:30:48.031Z,21.50
2022-07-26T22:33:17.852Z,26.23
2022-07-26T22:35:47.011Z,35.67
2022-07-26T22:38:16.302Z,37.42
2022-07-26T22:40:46.141Z,61.30
2022-07-26T22:43:16.327Z,58.70
2022-07-26T22:45:45.805Z,62.05
2022-07-26T22:48:15.081Z,67.38
2022-07-26T22:50:44.354Z,79.32
2022-07-26T22:53:13.607Z,67.88
2022-07-26T22:55:42.828Z,54.30
2022-07-26T22:58:11.985Z,36.95
2022-07-26T23:00:41.362Z,30.35
2022-07-26T23:03:20.032Z,22.23
2022-07-26T23:05:52.301Z,22.10
2022-07-26T23:08:47.178Z,19.67
2022-07-26T23:11:10.946Z,16.48
2022-07-26T23:13:40.154Z,13.68
2022-07-26T23:16:09.345Z,10.77
2022-07-26T23:18:38.696Z,11.20
2022-07-26T23:21:07.913Z,9.90
2022-07-26T23:23:37.025Z,9.50
2022-07-26T23:26:06.206Z,8.00
2022-07-26T23:28:38.271Z,8.20
2022-07-26T23:31:12.189Z,8.45
2022-07-26T23:33:52.516Z,8.23
2022-07-26T23:36:26.502Z,8.65
2022-07-26T23:38:57.695Z,8.00
2022-07-26T23:41:27.186Z,7.43
2022-07-26T23:43:56.926Z,7.90
2022-07-26T23:46:26.626Z,8.15
2022-07-26T23:48:56.913Z,8.07
2022-07-26T23:51:26.441Z,8.27
2022-07-26T23:53:55.982Z,7.78
2022-07-26T23:56:25.690Z,7.60
2022-07-26T23:58:54.915Z,7.53
